Time;durP1;ratioP1;P1;durP2;ratioP2;P2;SDS_P1;SDS_P2;PMS_P1;PMS_P2;Temp;Humidity;BMP_temperature;BMP_pressure;BME280_temperature;BME280_humidity;BME280_pressure;Samples;Min_cycle;Max_cycle;Signal;HPM_P1;HPM_P2
2022/10/02 00:01:55;;;;;;;20.85;4.47;;;;;;;;;;4993668;28;20043;-68
2022/10/02 00:04:23;;;;;;;17.75;4.20;;;;;;;;;;4992356;28;20046;-68
2022/10/02 00:06:49;;;;;;;20.02;4.40;;;;;;;;;;4992877;28;20378;-68
2022/10/02 00:09:23;;;;;;;21.48;4.20;;;;;;;;;;4993406;28;20053;-68
2022/10/02 00:11:54;;;;;;;21.90;4.25;;;;;;;;;;4973933;28;20405;-68
2022/10/02 00:14:22;;;;;;;16.23;3.90;;;;;;;;;;4989651;28;20085;-68
2022/10/02 00:16:50;;;;;;;20.95;4.32;;;;;;;;;;4975795;28;20042;-68
2022/10/02 00:19:17;;;;;;;20.75;3.78;;;;;;;;;;4965042;28;20059;-68
2022/10/02 00:21:55;;;;;;;19.70;4.10;;;;;;;;;;4992363;28;20050;-68
2022/10/02 00:24:26;;;;;;;18.92;3.95;;;;;;;;;;4993281;28;20416;-67
2022/10/02 00:26:52;;;;;;;;;;;;;;;;;;4976842;28;20046;-68
2022/10/02 00:29:27;;;;;;;16.48;3.75;;;;;;;;;;4992017;28;20427;-68
2022/10/02 00:32:12;;;;;;;17.08;3.50;;;;;;;;;;5008652;28;20052;-68
2022/10/02 00:34:56;;;;;;;19.42;3.92;;;;;;;;;;5053641;28;20040;-68
2022/10/02 00:37:37;;;;;;;20.90;3.78;;;;;;;;;;5048767;28;20395;-68
2022/10/02 00:40:03;;;;;;;18.95;4.45;;;;;;;;;;5052592;28;20510;-68
2022/10/02 00:42:45;;;;;;;19.40;4.03;;;;;;;;;;5052365;28;20045;-68
2022/10/02 00:45:14;;;;;;;17.65;3.70;;;;;;;;;;5053276;28;20044;-67
2022/10/02 00:47:50;;;;;;;23.30;4.00;;;;;;;;;;5054374;28;20143;-68
2022/10/02 00:50:17;;;;;;;17.67;3.63;;;;;;;;;;5053971;28;20569;-68
2022/10/02 00:53:08;;;;;;;19.20;3.60;;;;;;;;;;5053647;28;20048;-67
2022/10/02 00:55:34;;;;;;;16.70;3.78;;;;;;;;;;5052970;28;20063;-68
2022/10/02 00:58:19;;;;;;;13.32;3.67;;;;;;;;;;5054811;28;20503;-68
2022/10/02 01:00:50;;;;;;;16.30;3.15;;;;;;;;;;5035625;28;20555;-68
2022/10/02 01:03:18;;;;;;;14.57;3.00;;;;;;;;;;5053980;28;20045;-67
2022/10/02 01:05:44;;;;;;;17.02;2.97;;;;;;;;;;5053008;28;20045;-68
2022/10/02 01:08:10;;;;;;;15.43;3.53;;;;;;;;;;5054456;28;20517;-67
2022/10/02 01:10:37;;;;;;;19.15;3.00;;;;;;;;;;5043137;28;20041;-68
2022/10/02 01:13:03;;;;;;;13.70;3.20;;;;;;;;;;5033977;28;20071;-68
2022/10/02 01:15:31;;;;;;;19.33;3.60;;;;;;;;;;5052147;28;20099;-68
2022/10/02 01:17:57;;;;;;;20.25;3.60;;;;;;;;;;5052901;28;20120;-67
2022/10/02 01:20:43;;;;;;;17.65;3.55;;;;;;;;;;5052538;28;20045;-68
2022/10/02 01:23:12;;;;;;;14.23;3.00;;;;;;;;;;5052218;28;20050;-68
2022/10/02 01:25:38;;;;;;;14.02;3.15;;;;;;;;;;5051175;28;20087;-68
2022/10/02 01:28:04;;;;;;;17.73;3.35;;;;;;;;;;5019922;28;20044;-68
2022/10/02 01:30:31;;;;;;;14.45;3.10;;;;;;;;;;5051577;28;20045;-68
2022/10/02 01:32:59;;;;;;;19.17;3.67;;;;;;;;;;5051220;28;20044;-68
2022/10/02 01:35:27;;;;;;;13.60;3.28;;;;;;;;;;5049242;28;20514;-68
2022/10/02 01:37:54;;;;;;;14.80;3.25;;;;;;;;;;5053520;28;20133;-68
2022/10/02 01:40:26;;;;;;;17.83;3.53;;;;;;;;;;5052949;28;20293;-68
2022/10/02 01:42:52;;;;;;;14.60;3.20;;;;;;;;;;5053258;28;20052;-67
2022/10/02 01:45:20;;;;;;;14.70;3.30;;;;;;;;;;5052611;28;20053;-68
2022/10/02 01:47:54;;;;;;;15.98;3.80;;;;;;;;;;5052910;28;20479;-68
2022/10/02 01:50:20;;;;;;;19.02;3.05;;;;;;;;;;5041777;28;20069;-68
2022/10/02 01:52:53;;;;;;;18.88;3.33;;;;;;;;;;5051607;28;20122;-68
2022/10/02 01:55:45;;;;;;;18.85;3.28;;;;;;;;;;5031503;28;20513;-68
2022/10/02 01:58:11;;;;;;;10.88;2.70;;;;;;;;;;5032035;28;20052;-68
2022/10/02 02:00:58;;;;;;;14.02;3.20;;;;;;;;;;5051665;28;20044;-67
2022/10/02 02:03:32;;;;;;;20.90;3.17;;;;;;;;;;5012490;28;20044;-67
2022/10/02 02:06:16;;;;;;;15.65;3.20;;;;;;;;;;5053474;28;20576;-67
2022/10/02 02:08:59;;;;;;;14.05;3.20;;;;;;;;;;5033396;28;20495;-67
2022/10/02 02:11:25;;;;;;;14.98;3.28;;;;;;;;;;5043406;28;20044;-67
2022/10/02 02:13:51;;;;;;;19.00;3.38;;;;;;;;;;5048444;28;20045;-67
2022/10/02 02:16:27;;;;;;;15.50;3.50;;;;;;;;;;5050764;28;20048;-67
2022/10/02 02:19:13;;;;;;;15.48;3.15;;;;;;;;;;5052376;28;20069;-67
2022/10/02 02:21:41;;;;;;;22.02;3.83;;;;;;;;;;5050544;28;20095;-68
2022/10/02 02:24:10;;;;;;;15.07;3.55;;;;;;;;;;5051816;28;20048;-67
2022/10/02 02:26:37;;;;;;;21.33;3.88;;;;;;;;;;5052046;28;20033;-68
2022/10/02 02:29:06;;;;;;;19.05;3.88;;;;;;;;;;5051424;28;20068;-68
2022/10/02 02:31:36;;;;;;;18.65;4.15;;;;;;;;;;5050897;28;20049;-67
2022/10/02 02:34:04;;;;;;;23.98;3.78;;;;;;;;;;5048453;28;20047;-68
2022/10/02 02:36:36;;;;;;;19.63;4.05;;;;;;;;;;5050503;28;20051;-68
2022/10/02 02:39:08;;;;;;;18.17;4.05;;;;;;;;;;5053203;28;20076;-68
2022/10/02 02:41:38;;;;;;;21.40;4.55;;;;;;;;;;5050369;28;20157;-68
2022/10/02 02:44:09;;;;;;;21.58;4.28;;;;;;;;;;5052084;28;20063;-68
2022/10/02 02:47:02;;;;;;;22.23;3.92;;;;;;;;;;5051046;28;20406;-68
2022/10/02 02:49:30;;;;;;;22.48;3.95;;;;;;;;;;5051157;28;20045;-68
2022/10/02 02:51:58;;;;;;;17.42;4.25;;;;;;;;;;5050734;28;20479;-68
2022/10/02 02:54:35;;;;;;;22.08;4.07;;;;;;;;;;5067732;28;20401;-68
2022/10/02 02:57:03;;;;;;;17.23;3.70;;;;;;;;;;5050784;28;20055;-67
2022/10/02 02:59:30;;;;;;;21.67;3.90;;;;;;;;;;5047040;28;20048;-69
2022/10/02 03:01:56;;;;;;;18.05;3.30;;;;;;;;;;5051276;28;20037;-68
2022/10/02 03:04:22;;;;;;;23.42;4.25;;;;;;;;;;5051231;28;20052;-68
2022/10/02 03:06:51;;;;;;;18.48;3.90;;;;;;;;;;5051782;28;20043;-68
2022/10/02 03:09:19;;;;;;;20.05;3.95;;;;;;;;;;5052606;28;20124;-68
2022/10/02 03:11:58;;;;;;;20.58;3.70;;;;;;;;;;5050578;28;20041;-68
2022/10/02 03:14:42;;;;;;;23.08;3.95;;;;;;;;;;5033561;28;20045;-67
2022/10/02 03:17:26;;;;;;;21.92;3.70;;;;;;;;;;5048080;28;20080;-68
2022/10/02 03:20:00;;;;;;;22.85;4.18;;;;;;;;;;5051562;28;21366;-68
2022/10/02 03:22:40;;;;;;;19.05;3.58;;;;;;;;;;5066066;28;20045;-67
2022/10/02 03:25:20;;;;;;;20.45;3.72;;;;;;;;;;5051763;28;20128;-68
2022/10/02 03:27:51;;;;;;;19.50;3.58;;;;;;;;;;5049923;28;20130;-68
2022/10/02 03:30:23;;;;;;;19.35;3.50;;;;;;;;;;5046902;28;20049;-68
2022/10/02 03:32:52;;;;;;;21.63;3.80;;;;;;;;;;5036004;28;20126;-68
2022/10/02 03:35:19;;;;;;;15.93;3.08;;;;;;;;;;5052624;28;20116;-68
2022/10/02 03:37:47;;;;;;;22.02;3.50;;;;;;;;;;5051080;28;20041;-68
2022/10/02 03:40:13;;;;;;;22.92;4.32;;;;;;;;;;5050653;28;20045;-67
2022/10/02 03:42:39;;;;;;;19.35;3.30;;;;;;;;;;5051429;28;20041;-68
2022/10/02 03:45:05;;;;;;;15.52;3.45;;;;;;;;;;5028786;28;20046;-68
2022/10/02 03:47:32;;;;;;;19.73;3.17;;;;;;;;;;5041752;28;20075;-67
2022/10/02 03:49:58;;;;;;;19.33;3.80;;;;;;;;;;5033314;28;20056;-68
2022/10/02 03:52:24;;;;;;;18.92;4.07;;;;;;;;;;5051314;28;20041;-67
2022/10/02 03:54:57;;;;;;;15.43;3.30;;;;;;;;;;5050535;28;20094;-66
2022/10/02 03:57:25;;;;;;;15.13;3.55;;;;;;;;;;5025978;28;20067;-67
2022/10/02 04:00:00;;;;;;;16.27;3.33;;;;;;;;;;5048839;28;20040;-67
2022/10/02 04:02:44;;;;;;;19.48;2.88;;;;;;;;;;5052969;28;20120;-67
2022/10/02 04:05:13;;;;;;;13.15;2.92;;;;;;;;;;5055911;28;20045;-67
2022/10/02 04:07:41;;;;;;;12.20;2.75;;;;;;;;;;5067523;28;20171;-67
2022/10/02 04:10:27;;;;;;;13.07;2.90;;;;;;;;;;5053424;28;20041;-67
2022/10/02 04:12:57;;;;;;;16.08;3.20;;;;;;;;;;5046304;28;20045;-67
2022/10/02 04:15:27;;;;;;;20.55;2.75;;;;;;;;;;5054254;28;20530;-68
2022/10/02 04:17:58;;;;;;;14.80;3.10;;;;;;;;;;5054379;28;20102;-67
2022/10/02 04:20:30;;;;;;;14.77;2.67;;;;;;;;;;5055570;28;20445;-68
2022/10/02 04:23:14;;;;;;;13.77;2.50;;;;;;;;;;5054054;28;20048;-68
2022/10/02 04:25:44;;;;;;;10.73;2.20;;;;;;;;;;5053596;28;20032;-68
2022/10/02 04:28:13;;;;;;;20.30;2.78;;;;;;;;;;5050352;28;20755;-68
2022/10/02 04:30:39;;;;;;;15.95;2.75;;;;;;;;;;5054166;28;20482;-68
2022/10/02 04:33:16;;;;;;;14.05;2.42;;;;;;;;;;5036288;28;20099;-68
2022/10/02 04:35:51;;;;;;;18.70;2.72;;;;;;;;;;5036806;28;20489;-67
2022/10/02 04:38:17;;;;;;;11.02;2.15;;;;;;;;;;5066334;28;20065;-68
2022/10/02 04:40:49;;;;;;;12.57;2.20;;;;;;;;;;5053707;28;20040;-68
2022/10/02 04:43:27;;;;;;;13.00;2.55;;;;;;;;;;5051261;28;20064;-68
2022/10/02 04:46:05;;;;;;;16.77;2.22;;;;;;;;;;5050385;28;20052;-69
2022/10/02 04:48:40;;;;;;;10.75;2.00;;;;;;;;;;5051685;28;20482;-68
2022/10/02 04:51:19;;;;;;;15.85;2.60;;;;;;;;;;5054288;28;20091;-68
2022/10/02 04:53:53;;;;;;;15.38;2.70;;;;;;;;;;5053907;28;20044;-68
2022/10/02 04:56:31;;;;;;;12.90;2.63;;;;;;;;;;5053684;28;20052;-68
2022/10/02 04:58:57;;;;;;;17.20;2.85;;;;;;;;;;5040767;28;20052;-68
2022/10/02 05:01:42;;;;;;;12.38;2.20;;;;;;;;;;5069338;28;20104;-68
2022/10/02 05:04:30;;;;;;;15.85;2.80;;;;;;;;;;5016860;28;20041;-68
2022/10/02 05:06:59;;;;;;;15.57;2.92;;;;;;;;;;5040064;28;20426;-68
2022/10/02 05:09:36;;;;;;;20.70;2.83;;;;;;;;;;5034750;28;20064;-68
2022/10/02 05:12:05;;;;;;;17.67;3.08;;;;;;;;;;5051827;28;20053;-68
2022/10/02 05:14:54;;;;;;;17.67;2.88;;;;;;;;;;5052250;28;20047;-68
2022/10/02 05:17:40;;;;;;;15.95;2.78;;;;;;;;;;5052372;28;20135;-68
2022/10/02 05:20:35;;;;;;;16.83;2.90;;;;;;;;;;5036661;28;20037;-67
2022/10/02 05:23:20;;;;;;;19.05;3.00;;;;;;;;;;5029158;28;20512;-67
2022/10/02 05:26:01;;;;;;;16.40;3.08;;;;;;;;;;5046586;28;20179;-67
2022/10/02 05:28:36;;;;;;;21.05;3.53;;;;;;;;;;5051508;28;20564;-67
2022/10/02 05:31:15;;;;;;;14.25;2.97;;;;;;;;;;5052149;28;20041;-68
2022/10/02 05:33:49;;;;;;;17.40;3.05;;;;;;;;;;5034808;28;20076;-68
2022/10/02 05:36:34;;;;;;;17.45;3.10;;;;;;;;;;5051610;28;20079;-68
2022/10/02 05:39:06;;;;;;;14.20;3.42;;;;;;;;;;5052602;28;20403;-68
2022/10/02 05:41:38;;;;;;;22.73;3.47;;;;;;;;;;5034036;28;20532;-67
2022/10/02 05:44:06;;;;;;;19.67;3.25;;;;;;;;;;5050125;28;20143;-68
2022/10/02 05:46:36;;;;;;;14.82;3.60;;;;;;;;;;5051249;28;20049;-68
2022/10/02 05:49:13;;;;;;;16.13;3.17;;;;;;;;;;5051028;28;20045;-67
2022/10/02 05:51:58;;;;;;;21.67;3.83;;;;;;;;;;5038000;28;20045;-68
2022/10/02 05:54:27;;;;;;;16.95;2.95;;;;;;;;;;5051497;28;20136;-68
2022/10/02 05:57:16;;;;;;;15.15;3.05;;;;;;;;;;5047763;28;20044;-67
2022/10/02 05:59:42;;;;;;;16.48;3.13;;;;;;;;;;5051610;28;20041;-67
2022/10/02 06:02:14;;;;;;;20.20;3.90;;;;;;;;;;5046762;28;20186;-68
2022/10/02 06:04:43;;;;;;;15.38;3.05;;;;;;;;;;5051606;28;20410;-67
2022/10/02 06:07:11;;;;;;;16.63;3.20;;;;;;;;;;5046780;28;20041;-68
2022/10/02 06:09:44;;;;;;;19.77;3.28;;;;;;;;;;5052003;28;20041;-67
2022/10/02 06:12:29;;;;;;;18.63;3.10;;;;;;;;;;5067173;28;20433;-67
2022/10/02 06:15:07;;;;;;;19.23;3.17;;;;;;;;;;5052162;28;20053;-68
2022/10/02 06:17:36;;;;;;;15.07;3.08;;;;;;;;;;5033805;28;20059;-68
2022/10/02 06:20:22;;;;;;;17.60;3.35;;;;;;;;;;5051708;28;20052;-68
2022/10/02 06:22:55;;;;;;;12.60;3.10;;;;;;;;;;5034012;28;20102;-68
2022/10/02 06:25:25;;;;;;;18.23;3.70;;;;;;;;;;5051798;28;20052;-68
2022/10/02 06:27:53;;;;;;;22.17;3.50;;;;;;;;;;5050638;28;20060;-68
2022/10/02 06:30:20;;;;;;;19.45;3.60;;;;;;;;;;5053841;28;20045;-68
2022/10/02 06:32:47;;;;;;;20.45;3.35;;;;;;;;;;5046503;28;20116;-68
2022/10/02 06:35:14;;;;;;;20.17;3.50;;;;;;;;;;5032430;28;20045;-68
2022/10/02 06:37:55;;;;;;;21.65;3.50;;;;;;;;;;5039023;28;20049;-67
2022/10/02 06:40:30;;;;;;;19.10;3.67;;;;;;;;;;5031476;28;20045;-68
2022/10/02 06:43:13;;;;;;;18.50;3.33;;;;;;;;;;5051010;28;20053;-67
2022/10/02 06:45:52;;;;;;;15.77;2.85;;;;;;;;;;5051699;28;20052;-67
2022/10/02 06:48:23;;;;;;;17.15;3.38;;;;;;;;;;5049342;28;20056;-67
2022/10/02 06:51:00;;;;;;;17.45;3.38;;;;;;;;;;5049859;28;20083;-67
2022/10/02 06:53:29;;;;;;;18.75;3.30;;;;;;;;;;5049680;28;20051;-68
2022/10/02 06:56:13;;;;;;;21.40;3.50;;;;;;;;;;5026136;28;20120;-68
2022/10/02 06:58:45;;;;;;;18.10;3.50;;;;;;;;;;5050958;28;20049;-68
2022/10/02 07:01:30;;;;;;;17.35;3.00;;;;;;;;;;5047768;28;20053;-69
2022/10/02 07:04:12;;;;;;;15.82;3.05;;;;;;;;;;5051624;28;20052;-68
2022/10/02 07:06:54;;;;;;;14.73;2.80;;;;;;;;;;5019685;28;20130;-68
2022/10/02 07:09:35;;;;;;;13.48;2.92;;;;;;;;;;5050169;28;20498;-68
2022/10/02 07:12:08;;;;;;;17.25;3.78;;;;;;;;;;5047114;28;20053;-68
2022/10/02 07:14:53;;;;;;;16.13;4.03;;;;;;;;;;5048657;28;20099;-68
2022/10/02 07:17:31;;;;;;;14.70;3.67;;;;;;;;;;5048608;28;20037;-69
2022/10/02 07:20:05;;;;;;;17.25;3.33;;;;;;;;;;5046025;28;20161;-68
2022/10/02 07:23:11;;;;;;;13.05;2.60;;;;;;;;;;5048144;28;20052;-69
2022/10/02 07:25:50;;;;;;;11.07;2.70;;;;;;;;;;5049641;28;20053;-68
2022/10/02 07:28:22;;;;;;;16.80;3.05;;;;;;;;;;5047817;28;20037;-68
2022/10/02 07:31:08;;;;;;;13.82;2.90;;;;;;;;;;5048549;28;20115;-68
2022/10/02 07:33:34;;;;;;;11.23;2.90;;;;;;;;;;5047638;28;20064;-68
2022/10/02 07:36:04;;;;;;;13.32;2.67;;;;;;;;;;5041957;28;20491;-68
2022/10/02 07:38:42;;;;;;;14.98;2.92;;;;;;;;;;5031414;28;20037;-69
2022/10/02 07:41:26;;;;;;;12.90;2.78;;;;;;;;;;5051756;28;20180;-68
2022/10/02 07:43:55;;;;;;;15.60;2.45;;;;;;;;;;5051126;28;20056;-72
2022/10/02 07:46:21;;;;;;;13.80;3.05;;;;;;;;;;5035070;28;20463;-69
2022/10/02 07:48:56;;;;;;;16.52;3.33;;;;;;;;;;5008183;28;20057;-70
2022/10/02 07:51:47;;;;;;;15.73;2.97;;;;;;;;;;5033281;28;20045;-69
2022/10/02 07:54:31;;;;;;;13.85;3.03;;;;;;;;;;5033774;28;20085;-69
2022/10/02 07:57:00;;;;;;;17.40;3.20;;;;;;;;;;5047214;28;20099;-69
2022/10/02 07:59:28;;;;;;;14.82;2.90;;;;;;;;;;5054594;28;20052;-69
2022/10/02 08:01:55;;;;;;;16.75;2.92;;;;;;;;;;5052867;28;20037;-69
2022/10/02 08:04:29;;;;;;;15.85;2.80;;;;;;;;;;5050853;28;20068;-69
2022/10/02 08:07:00;;;;;;;15.85;2.92;;;;;;;;;;5017493;28;20045;-70
2022/10/02 08:09:31;;;;;;;16.25;3.17;;;;;;;;;;5052438;28;20040;-69
2022/10/02 08:12:04;;;;;;;16.10;3.35;;;;;;;;;;5047724;28;20052;-69
2022/10/02 08:14:40;;;;;;;16.42;2.83;;;;;;;;;;5046736;28;20045;-69
2022/10/02 08:17:26;;;;;;;16.80;2.90;;;;;;;;;;5053240;28;20041;-70
2022/10/02 08:19:53;;;;;;;14.20;2.78;;;;;;;;;;5054087;28;20499;-69
2022/10/02 08:22:28;;;;;;;15.98;3.00;;;;;;;;;;5047453;28;20443;-70
2022/10/02 08:24:57;;;;;;;16.83;2.92;;;;;;;;;;5054887;28;20107;-69
2022/10/02 08:27:27;;;;;;;16.30;3.17;;;;;;;;;;5054395;28;20072;-69
2022/10/02 08:29:55;;;;;;;13.18;2.65;;;;;;;;;;5052924;28;20128;-69
2022/10/02 08:32:21;;;;;;;17.58;3.22;;;;;;;;;;5053071;28;20037;-69
2022/10/02 08:34:48;;;;;;;12.93;2.60;;;;;;;;;;5053745;28;20106;-69
2022/10/02 08:37:14;;;;;;;17.73;3.85;;;;;;;;;;5050176;28;20056;-69
2022/10/02 08:39:49;;;;;;;13.55;3.58;;;;;;;;;;5042230;28;20469;-69
2022/10/02 08:42:24;;;;;;;15.30;2.97;;;;;;;;;;5055572;28;20521;-69
2022/10/02 08:44:50;;;;;;;20.45;3.22;;;;;;;;;;5015483;28;20103;-69
2022/10/02 08:47:32;;;;;;;19.17;3.42;;;;;;;;;;5052389;28;20066;-70
2022/10/02 08:49:58;;;;;;;;;;;;;;;;;;5052843;28;20033;-69
2022/10/02 08:52:28;;;;;;;14.50;2.63;;;;;;;;;;5032652;28;19983;-69
2022/10/02 08:54:57;;;;;;;13.43;2.72;;;;;;;;;;5033354;28;20072;-69
2022/10/02 08:57:26;;;;;;;14.40;2.80;;;;;;;;;;5042366;28;20044;-69
2022/10/02 09:00:07;;;;;;;15.05;2.47;;;;;;;;;;5052002;28;20056;-70
2022/10/02 09:02:33;;;;;;;;;;;;;;;;;;5036720;28;20060;-70
2022/10/02 09:05:18;;;;;;;19.60;3.33;;;;;;;;;;5054294;28;19921;-70
2022/10/02 09:08:06;;;;;;;14.77;2.97;;;;;;;;;;5051801;28;20041;-69
2022/10/02 09:10:51;;;;;;;18.48;2.60;;;;;;;;;;5053955;28;20049;-69
2022/10/02 09:13:29;;;;;;;12.90;2.75;;;;;;;;;;5052866;28;20426;-70
2022/10/02 09:16:04;;;;;;;16.92;3.35;;;;;;;;;;5034808;28;20102;-69
2022/10/02 09:18:49;;;;;;;12.38;2.25;;;;;;;;;;5052992;28;20055;-70
2022/10/02 09:21:17;;;;;;;17.13;2.58;;;;;;;;;;5049699;28;20167;-69
2022/10/02 09:23:45;;;;;;;15.80;2.63;;;;;;;;;;5059951;28;20371;-70
2022/10/02 09:26:11;;;;;;;15.82;2.63;;;;;;;;;;5068049;28;20117;-70
2022/10/02 09:28:37;;;;;;;14.63;2.65;;;;;;;;;;5034907;28;20131;-69
2022/10/02 09:31:24;;;;;;;13.43;2.70;;;;;;;;;;5052706;28;20049;-69
2022/10/02 09:34:12;;;;;;;15.95;2.83;;;;;;;;;;5042258;28;20410;-70
2022/10/02 09:36:57;;;;;;;17.55;3.03;;;;;;;;;;5052724;28;20048;-70
2022/10/02 09:39:27;;;;;;;15.77;2.80;;;;;;;;;;5016996;28;20495;-69
2022/10/02 09:42:08;;;;;;;14.77;2.50;;;;;;;;;;5050367;28;20068;-69
2022/10/02 09:44:34;;;;;;;10.98;2.75;;;;;;;;;;5034628;28;20052;-70
2022/10/02 09:47:23;;;;;;;11.77;2.17;;;;;;;;;;5062369;28;20037;-69
2022/10/02 09:49:59;;;;;;;14.02;2.67;;;;;;;;;;5026532;28;20047;-68
2022/10/02 09:52:44;;;;;;;13.90;2.50;;;;;;;;;;5045562;28;20452;-69
2022/10/02 09:55:28;;;;;;;14.25;2.03;;;;;;;;;;5043712;28;20154;-69
2022/10/02 09:58:05;;;;;;;17.98;8.10;;;;;;;;;;5057247;28;20080;-68
2022/10/02 10:00:48;;;;;;;28.73;12.65;;;;;;;;;;5041901;28;20055;-68
2022/10/02 10:03:23;;;;;;;17.70;5.10;;;;;;;;;;5042637;28;20179;-68
2022/10/02 10:05:55;;;;;;;15.30;2.45;;;;;;;;;;5031998;28;20135;-69
2022/10/02 10:08:33;;;;;;;14.20;2.15;;;;;;;;;;5051646;28;20560;-69
2022/10/02 10:11:06;;;;;;;12.95;2.38;;;;;;;;;;5032791;28;20124;-68
2022/10/02 10:14:05;;;;;;;15.15;2.55;;;;;;;;;;5053013;28;20460;-69
2022/10/02 10:16:51;;;;;;;10.48;2.10;;;;;;;;;;5050083;28;20095;-68
2022/10/02 10:19:35;;;;;;;14.65;2.20;;;;;;;;;;5029000;28;20092;-68
2022/10/02 10:22:19;;;;;;;13.25;2.92;;;;;;;;;;5043121;28;20045;-68
2022/10/02 10:24:48;;;;;;;17.95;2.30;;;;;;;;;;5042152;28;20087;-69
2022/10/02 10:27:29;;;;;;;15.75;2.60;;;;;;;;;;5043186;28;20075;-68
2022/10/02 10:30:13;;;;;;;13.40;2.70;;;;;;;;;;5039914;28;20133;-68
2022/10/02 10:33:14;;;;;;;9.93;2.15;;;;;;;;;;5051609;28;20049;-69
2022/10/02 10:35:40;;;;;;;12.50;2.45;;;;;;;;;;4964915;28;20078;-70
2022/10/02 10:38:31;;;;;;;12.60;2.47;;;;;;;;;;4946689;28;20509;-70
2022/10/02 10:41:16;;;;;;;12.70;2.47;;;;;;;;;;4945533;29;20062;-69
2022/10/02 10:44:00;;;;;;;11.57;2.17;;;;;;;;;;4950558;28;20051;-70
2022/10/02 10:46:26;;;;;;;12.30;2.60;;;;;;;;;;4945672;28;20506;-70
2022/10/02 10:49:11;;;;;;;13.50;2.60;;;;;;;;;;4950900;28;20389;-69
2022/10/02 10:51:37;;;;;;;14.93;2.80;;;;;;;;;;4947607;28;20051;-69
2022/10/02 10:54:23;;;;;;;14.02;2.50;;;;;;;;;;4950669;29;20039;-69
2022/10/02 10:56:54;;;;;;;17.90;2.53;;;;;;;;;;4934530;29;20058;-68
2022/10/02 10:59:41;;;;;;;14.23;2.60;;;;;;;;;;4951016;28;20141;-69
2022/10/02 11:02:25;;;;;;;16.75;2.50;;;;;;;;;;4949984;28;20055;-68
2022/10/02 11:05:00;;;;;;;15.63;2.60;;;;;;;;;;4951147;28;20159;-69
2022/10/02 11:07:33;;;;;;;15.35;2.60;;;;;;;;;;4967335;28;20074;-69
2022/10/02 11:10:06;;;;;;;18.02;2.70;;;;;;;;;;5011831;28;20057;-69
2022/10/02 11:12:42;;;;;;;13.43;2.45;;;;;;;;;;5034116;28;20048;-70
2022/10/02 11:15:27;;;;;;;13.68;2.50;;;;;;;;;;5044332;28;20042;-69
2022/10/02 11:18:01;;;;;;;15.68;2.55;;;;;;;;;;5046904;28;20045;-69
2022/10/02 11:20:43;;;;;;;15.65;2.67;;;;;;;;;;5052761;28;20055;-69
2022/10/02 11:23:23;;;;;;;13.43;2.58;;;;;;;;;;5051794;28;20053;-69
2022/10/02 11:26:06;;;;;;;13.80;2.70;;;;;;;;;;5030393;28;20057;-68
2022/10/02 11:28:35;;;;;;;13.00;2.50;;;;;;;;;;5050500;28;20064;-69
2022/10/02 11:31:16;;;;;;;16.63;2.88;;;;;;;;;;5050881;28;20045;-69
2022/10/02 11:33:43;;;;;;;;;;;;;;;;;;5055262;28;20483;-68
2022/10/02 11:36:09;;;;;;;15.27;2.40;;;;;;;;;;5055205;28;19928;-69
2022/10/02 11:38:44;;;;;;;15.95;2.22;;;;;;;;;;5039891;28;20047;-69
2022/10/02 11:41:19;;;;;;;16.13;2.50;;;;;;;;;;5070158;28;20053;-69
2022/10/02 11:43:58;;;;;;;13.85;2.25;;;;;;;;;;5054981;28;20052;-69
2022/10/02 11:47:00;;;;;;;12.23;2.42;;;;;;;;;;5053984;28;20045;-68
2022/10/02 11:49:45;;;;;;;14.30;2.58;;;;;;;;;;5011368;28;20045;-68
2022/10/02 11:52:29;;;;;;;13.25;1.95;;;;;;;;;;5011831;28;20117;-69
2022/10/02 11:55:02;;;;;;;15.68;2.92;;;;;;;;;;5009168;28;20038;-68
2022/10/02 11:57:47;;;;;;;12.20;2.33;;;;;;;;;;5012193;28;20050;-68
2022/10/02 12:00:14;;;;;;;15.88;3.08;;;;;;;;;;5011971;28;20084;-68
2022/10/02 12:02:48;;;;;;;15.45;3.00;;;;;;;;;;4995224;28;20046;-68
2022/10/02 12:05:20;;;;;;;12.73;2.17;;;;;;;;;;5011531;28;20419;-68
2022/10/02 12:07:54;;;;;;;11.13;2.05;;;;;;;;;;5010763;28;20046;-68
2022/10/02 12:10:20;;;;;;;16.52;2.63;;;;;;;;;;5011224;28;20080;-68
2022/10/02 12:12:50;;;;;;;13.75;2.30;;;;;;;;;;5011442;28;20057;-68
2022/10/02 12:15:16;;;;;;;16.63;2.72;;;;;;;;;;5012520;28;20065;-67
2022/10/02 12:18:11;;;;;;;14.98;2.38;;;;;;;;;;5010934;28;20576;-69
2022/10/02 12:27:11;;;;;;;15.57;2.40;;;;;;;;;;4990529;28;20515;-70
2022/10/02 12:29:59;;;;;;;15.50;2.45;;;;;;;;;;5004928;28;20058;-69
2022/10/02 12:32:28;;;;;;;14.38;2.55;;;;;;;;;;4977996;28;20047;-69
2022/10/02 12:35:06;;;;;;;15.25;2.55;;;;;;;;;;4973690;28;20050;-69
2022/10/02 12:37:38;;;;;;;17.75;2.72;;;;;;;;;;4986304;28;20073;-69
2022/10/02 12:40:20;;;;;;;14.95;2.50;;;;;;;;;;4990405;28;20546;-70
2022/10/02 12:42:56;;;;;;;13.30;2.38;;;;;;;;;;4989562;28;20382;-69
2022/10/02 12:45:43;;;;;;;15.82;2.50;;;;;;;;;;4989173;28;20133;-69
2022/10/02 12:48:11;;;;;;;14.48;2.17;;;;;;;;;;4992105;28;20058;-69
2022/10/02 12:50:43;;;;;;;10.20;1.92;;;;;;;;;;4991831;28;20058;-69
2022/10/02 12:53:35;;;;;;;10.15;1.80;;;;;;;;;;4989384;28;20122;-69
2022/10/02 12:56:20;;;;;;;10.93;1.80;;;;;;;;;;4991047;28;20555;-70
2022/10/02 12:59:07;;;;;;;11.52;1.80;;;;;;;;;;5047777;28;20049;-69
2022/10/02 13:01:56;;;;;;;11.07;2.20;;;;;;;;;;5045565;28;20081;-69
2022/10/02 13:04:41;;;;;;;11.82;2.00;;;;;;;;;;5054197;28;20089;-69
2022/10/02 13:07:13;;;;;;;9.55;1.83;;;;;;;;;;5039670;28;20045;-70
2022/10/02 13:09:56;;;;;;;9.43;1.50;;;;;;;;;;5050755;28;20110;-70
2022/10/02 13:12:33;;;;;;;11.02;2.03;;;;;;;;;;5053332;28;20044;-70
2022/10/02 13:15:18;;;;;;;10.57;1.80;;;;;;;;;;5032473;28;20073;-69
2022/10/02 13:17:50;;;;;;;8.50;1.70;;;;;;;;;;5048151;28;20449;-69
2022/10/02 13:20:27;;;;;;;8.85;1.80;;;;;;;;;;5036632;28;20063;-69
2022/10/02 13:23:04;;;;;;;9.02;1.55;;;;;;;;;;5073591;28;20045;-70
2022/10/02 13:25:36;;;;;;;12.13;1.95;;;;;;;;;;5066409;28;20128;-69
2022/10/02 13:28:02;;;;;;;13.00;2.25;;;;;;;;;;5051453;28;20045;-69
2022/10/02 13:30:32;;;;;;;8.93;1.98;;;;;;;;;;5052539;28;20045;-70
2022/10/02 13:33:04;;;;;;;12.80;1.65;;;;;;;;;;5052843;28;20043;-70
2022/10/02 13:35:36;;;;;;;10.15;1.60;;;;;;;;;;5034648;28;20092;-69
2022/10/02 13:38:23;;;;;;;8.73;1.50;;;;;;;;;;5053273;28;20048;-69
2022/10/02 13:40:51;;;;;;;9.20;1.80;;;;;;;;;;5053157;28;20509;-69
2022/10/02 13:43:33;;;;;;;10.40;1.75;;;;;;;;;;5053312;28;20100;-69
2022/10/02 13:46:02;;;;;;;12.88;1.50;;;;;;;;;;5052640;28;20430;-70
2022/10/02 13:48:47;;;;;;;9.40;1.50;;;;;;;;;;5052948;28;20049;-70
2022/10/02 13:51:39;;;;;;;10.23;1.80;;;;;;;;;;5034505;28;20053;-69
2022/10/02 13:54:08;;;;;;;10.02;1.80;;;;;;;;;;5027956;28;20052;-70
2022/10/02 13:57:04;;;;;;;12.88;2.28;;;;;;;;;;5072988;28;20051;-70
2022/10/02 13:59:33;;;;;;;9.02;1.80;;;;;;;;;;5031589;28;20058;-70
2022/10/02 14:02:19;;;;;;;10.30;1.63;;;;;;;;;;5032637;28;20047;-70
2022/10/02 14:04:51;;;;;;;12.88;2.25;;;;;;;;;;5032588;28;20116;-69
2022/10/02 14:07:37;;;;;;;11.77;2.20;;;;;;;;;;5030167;28;20067;-69
2022/10/02 14:10:09;;;;;;;14.05;1.90;;;;;;;;;;5050323;28;20049;-69
2022/10/02 14:12:43;;;;;;;14.38;2.20;;;;;;;;;;5050869;28;20060;-70
2022/10/02 14:15:19;;;;;;;13.95;2.20;;;;;;;;;;5041473;28;20045;-69
2022/10/02 14:17:58;;;;;;;12.20;2.20;;;;;;;;;;5029634;28;20045;-70
2022/10/02 14:20:24;;;;;;;11.85;2.30;;;;;;;;;;5051431;28;20041;-69
2022/10/02 14:23:09;;;;;;;15.73;3.50;;;;;;;;;;5052082;28;20395;-70
2022/10/02 14:25:41;;;;;;;14.57;2.78;;;;;;;;;;5052389;28;20438;-69
2022/10/02 14:28:13;;;;;;;12.15;2.15;;;;;;;;;;5049213;28;20044;-69
2022/10/02 14:30:58;;;;;;;12.45;2.40;;;;;;;;;;5051212;28;20053;-69
2022/10/02 14:33:34;;;;;;;17.40;2.53;;;;;;;;;;5048613;28;20041;-69
2022/10/02 14:36:14;;;;;;;9.80;2.10;;;;;;;;;;5044719;28;20089;-70
2022/10/02 14:38:44;;;;;;;11.70;2.13;;;;;;;;;;5051000;28;20140;-69
2022/10/02 14:41:21;;;;;;;13.30;2.70;;;;;;;;;;5048816;28;20037;-70
2022/10/02 14:44:02;;;;;;;19.05;3.03;;;;;;;;;;5017419;28;20068;-70
2022/10/02 14:46:52;;;;;;;14.63;2.80;;;;;;;;;;5052117;28;20061;-70
2022/10/02 14:49:31;;;;;;;11.18;2.55;;;;;;;;;;5047965;28;20059;-69
2022/10/02 14:52:16;;;;;;;15.20;2.20;;;;;;;;;;5040930;28;20045;-69
2022/10/02 14:55:00;;;;;;;14.50;2.28;;;;;;;;;;5050074;28;20219;-70
2022/10/02 14:57:26;;;;;;;16.55;2.47;;;;;;;;;;5042270;28;20056;-70
2022/10/02 15:00:13;;;;;;;13.70;1.88;;;;;;;;;;5043088;28;20097;-70
2022/10/02 15:02:55;;;;;;;12.02;1.92;;;;;;;;;;5044727;28;20048;-70
2022/10/02 15:05:27;;;;;;;16.52;2.28;;;;;;;;;;5030574;28;20048;-70
2022/10/02 15:07:53;;;;;;;15.43;2.55;;;;;;;;;;5036954;28;20425;-70
2022/10/02 15:10:24;;;;;;;15.38;2.83;;;;;;;;;;5048183;28;20044;-70
2022/10/02 15:12:54;;;;;;;13.45;2.20;;;;;;;;;;5036404;28;20461;-70
2022/10/02 15:18:56;;;;;;;15.85;2.63;;;;;;;;;;4951538;28;20504;-70
2022/10/02 15:21:39;;;;;;;12.90;2.60;;;;;;;;;;4944498;29;20048;-70
2022/10/02 15:24:19;;;;;;;14.27;2.50;;;;;;;;;;4938257;29;20144;-70
2022/10/02 15:26:49;;;;;;;16.05;2.47;;;;;;;;;;4951701;28;20056;-70
2022/10/02 15:29:38;;;;;;;14.40;2.43;;;;;;;;;;4947481;29;20061;-70